Hopkinton, Rhode Island
Current Conditions -  °F | °C
As of 6:53 AM on Friday 21 Nov 2014 (Local Time) from KWST Reporting Station
Clear Clear  
Wind Chill: 26°   Ceiling: Unl
Heat Index: 26°   Visibility: 10mi
Dew Point:   Wind: 0mph
Humidity: 49%   Direction: NA
Pressure: 30.1"   Gusts: NA
Location:  41.46°N, 71.78°W
Report Text: KWST 211153Z AUTO 00000KT 10SM CLR M03/M13 A3010 RMK AO2 SLP194 T10331128 11006 21033 53030
Loading
Personal Weather Stations






























Interactive Weather Map New forecast layout! Learn more

10-Day Weather Forecast

Advertisements
Track Severe Weather on mobile